Shawnee Mission, KS (66215)

9:37 AM CST on December 22, 2014 (GMT -0600)
Country Hills West | Change Station
CLOSE
Current Station
Personal Weather Station
Location: Lenexa, KS
Elevation: 1003 ft
Nearby Weather Stations

Elev 1003 ft 38.97 °N, 94.76 °W | Updated 18 seconds ago

Overcast
Overcast
42.1 °F
Feels Like 42 °F
N
1.5
Wind Variable Wind from South
Gusts 3.0 mph

Today
High -- | Low -- °F
--% Chance of Precip.
Yesterday
High -- | Low -- °F
Precip. -- in
7:34 AM 5:00 PM
New Moon, 0% visible
Pressure 29.58 in
Visibility 3.0 miles
Clouds Overcast 400 ft
Windchill 42 °F
Dew Point 42 °F
Humidity 100%
Rainfall 0.07 in
Snow Depth Not available.
UV 0 out of 12
Pollen .10 out of 12
Air Quality Not available.
Flu Activity Not available.
METAR KOJC 221453Z 15009KT 3SM BR OVC004 06/05 A2957 RMK AO2 RAE51 SLP015 P0001 60003 T00560050 58012

More Conditions Fewer Conditions

Pressure 29.58 in
Visibility 3.0 miles
Clouds Overcast 400 ft
Windchill 42 °F
Dew Point 42 °F
Humidity 100%
Rainfall 0.07 in
Snow Depth Not available.
UV 0 out of 12
Pollen .10 out of 12
Air Quality Not available.
Flu Activity Not available.
METAR KOJC 221453Z 15009KT 3SM BR OVC004 06/05 A2957 RMK AO2 RAE51 SLP015 P0001 60003 T00560050 58012

More Conditions Fewer Conditions

10-Day Weather Forecast

Almanac

Astronomy

Dec. 22, 2014 Rise Set
Actual Time
Civil Twilight
Nautical Twilight
Astronomical Twilight
Moon
Length of Visible Light
Length of Day
Tomorrow will be .
, % of the Moon is Illuminated

Today's Extremes

State Highs State Lows

Community

WunderPhotos

Upload Photos

1,779,619 photos uploaded!

WunderBlogs® & News

Nearby

Air Quality

  Air Quality AQ Index Pollutant
Not available.

Snow Depth

Station Depth Elevation

Earthquake Activity

City Distance Mag. Time & Date
Minimum magnitude displayed is 2.5.

Coastal Water Temperatures

Place Temperature

Nearby Weather Stations